Eviapetrol I — SY5401 — position and weather

sailwx.info

Track history (hours):
 
Tides and Currents Weather Stations Pressure Air Temp Water Temp Dewpoint Dewpoint Depression Visibility Wind Speed Wind Dir Waves Ship Positions

Eviapetrol I

Last reported at 2014-Oct-30 22:04 UTC. Time now 2014-Oct-31 23:08 UTC.
Position N 35°46' E 026°10'.

Length 75 m; draft 4.5 m.

Type: Tanker. MMSI: 240285000.

Date/timePositionNaut miles runAvg speedWind from/ knotsBaromVisibWave heightAir tempDewpointWater temp
2014-Oct-30 22:04N 35°46' E 026°10'34 9.4
2014-Oct-30 18:28N 35°31' E 025°33'31 1.6
2014-Oct-29 23:31N 35°37' E 024°55'9 9.5
2014-Oct-29 22:33N 35°44' E 024°48'10 9.6
2014-Oct-29 21:33N 35°52' E 024°42'10 9.6
2014-Oct-29 20:33N 36°01' E 024°36'9 9.1
2014-Oct-29 19:33N 36°09' E 024°31'9 9.3
2014-Oct-29 18:33N 36°17' E 024°26'9 9.2
2014-Oct-29 17:33N 36°25' E 024°22'9 9.0
2014-Oct-29 16:32N 36°33' E 024°16'9 9.2
2014-Oct-29 15:33N 36°40' E 024°09'10 9.4
2014-Oct-29 14:30N 36°49' E 024°04'11 9.6
2014-Oct-29 13:24N 36°59' E 023°57'38 9.9
2014-Oct-29 09:33N 37°32' E 023°34'9 9.1
2014-Oct-29 08:33N 37°39' E 023°27'9 8.6
2014-Oct-29 07:33N 37°42' E 023°17'9 9.3
2014-Oct-29 06:33N 37°50' E 023°11'6 0.4
2014-Oct-28 13:31N 37°55' E 023°05'12 2.9
2014-Oct-28 09:33N 37°52' E 023°19'10 9.7
2014-Oct-28 08:33N 37°50' E 023°31'10 9.5
2014-Oct-28 07:33N 37°46' E 023°42'11 8.9
2014-Oct-28 06:19N 37°39' E 023°53'8 9.9
2014-Oct-28 05:33N 37°37' E 024°02'1010.0
2014-Oct-28 04:32N 37°42' E 024°14'1510.5
2014-Oct-28 03:08N 37°52' E 024°28'129 3.5
2014-Oct-26 14:33N 40°00' E 024°10'2310.8
2014-Oct-26 12:22N 40°14' E 024°34'810.2
2014-Oct-26 11:33N 40°21' E 024°40'1010.3
2014-Oct-26 10:33N 40°30' E 024°48'1310.9
2014-Oct-26 09:20N 40°39' E 025°00'910.9
2014-Oct-26 08:32N 40°45' E 025°09'22 9.9
2014-Oct-26 06:17N 40°47' E 025°38'7 9.4
2014-Oct-26 05:33N 40°48' E 025°47'3 3.1
2014-Oct-26 04:33N 40°48' E 025°51'0 0.0
2014-Oct-26 03:33N 40°48' E 025°51'0 0.0
2014-Oct-26 02:33N 40°48' E 025°51'0 0.0
2014-Oct-26 01:33N 40°48' E 025°51'0 0.0
2014-Oct-26 00:33N 40°48' E 025°51'0 0.0
2014-Oct-25 23:33N 40°48' E 025°51'0 0.0
2014-Oct-25 22:33N 40°48' E 025°51'0 0.0
2014-Oct-25 21:33N 40°48' E 025°51'0 0.0
2014-Oct-25 20:33N 40°48' E 025°51'0 0.0
2014-Oct-25 19:30N 40°48' E 025°51'0 0.0
2014-Oct-25 18:33N 40°48' E 025°51'0 0.0
2014-Oct-25 17:33N 40°48' E 025°51'0 0.0
2014-Oct-25 16:33N 40°48' E 025°51'0 0.0
2014-Oct-25 15:33N 40°48' E 025°51'0 0.0
2014-Oct-25 14:33N 40°48' E 025°51'0 0.0
2014-Oct-25 13:33N 40°48' E 025°51'0 0.0
2014-Oct-25 12:33N 40°48' E 025°51'0 0.0
2014-Oct-25 11:33N 40°48' E 025°51'0 0.0
2014-Oct-25 10:33N 40°48' E 025°51'0 0.0
2014-Oct-25 09:33N 40°48' E 025°51'0 0.0
2014-Oct-25 08:33N 40°48' E 025°51'1 1.2
2014-Oct-25 07:33N 40°47' E 025°51'7 7.4
2014-Oct-25 06:33N 40°40' E 025°50'9 9.3
2014-Oct-25 05:33N 40°48' E 025°54'2 1.8
2014-Oct-25 04:32N 40°50' E 025°55'0 0.0
2014-Oct-25 03:32N 40°50' E 025°55'0 0.0
2014-Oct-25 02:32N 40°50' E 025°55'0 0.0
2014-Oct-25 01:32N 40°50' E 025°55'0 0.0
2014-Oct-25 00:32N 40°50' E 025°55'0 0.0
2014-Oct-24 23:32N 40°50' E 025°55'0 0.0
2014-Oct-24 22:32N 40°50' E 025°55'0 0.0
2014-Oct-24 21:32N 40°50' E 025°55'0 0.0
2014-Oct-24 20:32N 40°50' E 025°55'0 0.0
2014-Oct-24 19:32N 40°50' E 025°55'0 0.0
2014-Oct-24 18:32N 40°50' E 025°55'0 0.0
2014-Oct-24 17:32N 40°50' E 025°55'0 0.0
2014-Oct-24 16:32N 40°50' E 025°55'0 0.0
2014-Oct-24 15:32N 40°50' E 025°55'0 0.0
2014-Oct-24 14:32N 40°50' E 025°55'0 0.0
2014-Oct-24 13:32N 40°50' E 025°55'0 0.0
2014-Oct-24 12:32N 40°50' E 025°55'0 0.0
2014-Oct-24 11:32N 40°50' E 025°55'0 0.0
2014-Oct-24 10:32N 40°50' E 025°55'0 0.0
2014-Oct-24 09:32N 40°50' E 025°55'0 0.0
2014-Oct-24 08:32N 40°50' E 025°55'0 0.0
2014-Oct-24 07:32N 40°50' E 025°55'0 0.1
2014-Oct-24 06:33N 40°50' E 025°55'7 6.9
2014-Oct-24 05:33N 40°45' E 025°49'36 8.9
2014-Oct-24 01:30N 40°19' E 025°16'13 9.8
2014-Oct-24 00:08N 40°08' E 025°07'162 3.6
2014-Oct-22 02:31N 37°38' E 023°46'8 8.8
2014-Oct-22 01:33N 37°44' E 023°39'9 9.1
2014-Oct-22 00:33N 37°49' E 023°29'8 8.0
2014-Oct-21 23:33N 37°56' E 023°23'8 7.7
2014-Oct-21 22:33N 38°01' E 023°30'5 4.5
2014-Oct-21 21:31N 38°02' E 023°36'0 0.0
2014-Oct-21 20:31N 38°02' E 023°36'0 0.0
2014-Oct-21 19:28N 38°02' E 023°36'0 0.0
2014-Oct-21 18:31N 38°02' E 023°36'0 0.0
2014-Oct-21 17:31N 38°02' E 023°36'0 0.0
2014-Oct-21 16:31N 38°02' E 023°36'0 0.0
2014-Oct-21 15:31N 38°02' E 023°36'0 0.0
2014-Oct-21 14:31N 38°02' E 023°36'0 0.0
2014-Oct-21 13:32N 38°02' E 023°36'0 0.0
2014-Oct-21 12:33N 38°02' E 023°36'0 0.0
2014-Oct-21 11:33N 38°02' E 023°36'1 1.4
2014-Oct-21 10:32N 38°01' E 023°34'4 4.0
2014-Oct-21 09:33N 37°57' E 023°34'9 9.1
2014-Oct-21 08:33N 37°50' E 023°40'9 9.3
2014-Oct-21 07:33N 37°41' E 023°45'51 9.4
2014-Oct-21 02:07N 36°51' E 023°56'  
Track history (hours):
 
Tides and Currents Weather Stations Pressure Air Temp Water Temp Dewpoint Dewpoint Depression Visibility Wind Speed Wind Dir Waves Ship Positions

Eviapetrol I

Last reported at 2014-Oct-30 22:04 UTC. Time now 2014-Oct-31 23:08 UTC.
Position N 35°46' E 026°10'.

Length 75 m; draft 4.5 m.

Type: Tanker. MMSI: 240285000.

Date/timePositionNaut miles runAvg speedWind from/ knotsBaromVisibWave heightAir tempDewpointWater temp
2014-Oct-30 22:04N 35°46' E 026°10'34 9.4
2014-Oct-30 18:28N 35°31' E 025°33'31 1.6
2014-Oct-29 23:31N 35°37' E 024°55'9 9.5
2014-Oct-29 22:33N 35°44' E 024°48'10 9.6
2014-Oct-29 21:33N 35°52' E 024°42'10 9.6
2014-Oct-29 20:33N 36°01' E 024°36'9 9.1
2014-Oct-29 19:33N 36°09' E 024°31'9 9.3
2014-Oct-29 18:33N 36°17' E 024°26'9 9.2
2014-Oct-29 17:33N 36°25' E 024°22'9 9.0
2014-Oct-29 16:32N 36°33' E 024°16'9 9.2
2014-Oct-29 15:33N 36°40' E 024°09'10 9.4
2014-Oct-29 14:30N 36°49' E 024°04'11 9.6
2014-Oct-29 13:24N 36°59' E 023°57'38 9.9
2014-Oct-29 09:33N 37°32' E 023°34'9 9.1
2014-Oct-29 08:33N 37°39' E 023°27'9 8.6
2014-Oct-29 07:33N 37°42' E 023°17'9 9.3
2014-Oct-29 06:33N 37°50' E 023°11'6 0.4
2014-Oct-28 13:31N 37°55' E 023°05'12 2.9
2014-Oct-28 09:33N 37°52' E 023°19'10 9.7
2014-Oct-28 08:33N 37°50' E 023°31'10 9.5
2014-Oct-28 07:33N 37°46' E 023°42'11 8.9
2014-Oct-28 06:19N 37°39' E 023°53'8 9.9
2014-Oct-28 05:33N 37°37' E 024°02'1010.0
2014-Oct-28 04:32N 37°42' E 024°14'1510.5
2014-Oct-28 03:08N 37°52' E 024°28'129 3.5
2014-Oct-26 14:33N 40°00' E 024°10'2310.8
2014-Oct-26 12:22N 40°14' E 024°34'810.2
2014-Oct-26 11:33N 40°21' E 024°40'1010.3
2014-Oct-26 10:33N 40°30' E 024°48'1310.9
2014-Oct-26 09:20N 40°39' E 025°00'910.9
2014-Oct-26 08:32N 40°45' E 025°09'22 9.9
2014-Oct-26 06:17N 40°47' E 025°38'7 9.4
2014-Oct-26 05:33N 40°48' E 025°47'3 3.1
2014-Oct-26 04:33N 40°48' E 025°51'0 0.0
2014-Oct-26 03:33N 40°48' E 025°51'0 0.0
2014-Oct-26 02:33N 40°48' E 025°51'0 0.0
2014-Oct-26 01:33N 40°48' E 025°51'0 0.0
2014-Oct-26 00:33N 40°48' E 025°51'0 0.0
2014-Oct-25 23:33N 40°48' E 025°51'0 0.0
2014-Oct-25 22:33N 40°48' E 025°51'0 0.0
2014-Oct-25 21:33N 40°48' E 025°51'0 0.0
2014-Oct-25 20:33N 40°48' E 025°51'0 0.0
2014-Oct-25 19:30N 40°48' E 025°51'0 0.0
2014-Oct-25 18:33N 40°48' E 025°51'0 0.0
2014-Oct-25 17:33N 40°48' E 025°51'0 0.0
2014-Oct-25 16:33N 40°48' E 025°51'0 0.0
2014-Oct-25 15:33N 40°48' E 025°51'0 0.0
2014-Oct-25 14:33N 40°48' E 025°51'0 0.0
2014-Oct-25 13:33N 40°48' E 025°51'0 0.0
2014-Oct-25 12:33N 40°48' E 025°51'0 0.0
2014-Oct-25 11:33N 40°48' E 025°51'0 0.0
2014-Oct-25 10:33N 40°48' E 025°51'0 0.0
2014-Oct-25 09:33N 40°48' E 025°51'0 0.0
2014-Oct-25 08:33N 40°48' E 025°51'1 1.2
2014-Oct-25 07:33N 40°47' E 025°51'7 7.4
2014-Oct-25 06:33N 40°40' E 025°50'9 9.3
2014-Oct-25 05:33N 40°48' E 025°54'2 1.8
2014-Oct-25 04:32N 40°50' E 025°55'0 0.0
2014-Oct-25 03:32N 40°50' E 025°55'0 0.0
2014-Oct-25 02:32N 40°50' E 025°55'0 0.0
2014-Oct-25 01:32N 40°50' E 025°55'0 0.0
2014-Oct-25 00:32N 40°50' E 025°55'0 0.0
2014-Oct-24 23:32N 40°50' E 025°55'0 0.0
2014-Oct-24 22:32N 40°50' E 025°55'0 0.0
2014-Oct-24 21:32N 40°50' E 025°55'0 0.0
2014-Oct-24 20:32N 40°50' E 025°55'0 0.0
2014-Oct-24 19:32N 40°50' E 025°55'0 0.0
2014-Oct-24 18:32N 40°50' E 025°55'0 0.0
2014-Oct-24 17:32N 40°50' E 025°55'0 0.0
2014-Oct-24 16:32N 40°50' E 025°55'0 0.0
2014-Oct-24 15:32N 40°50' E 025°55'0 0.0
2014-Oct-24 14:32N 40°50' E 025°55'0 0.0
2014-Oct-24 13:32N 40°50' E 025°55'0 0.0
2014-Oct-24 12:32N 40°50' E 025°55'0 0.0
2014-Oct-24 11:32N 40°50' E 025°55'0 0.0
2014-Oct-24 10:32N 40°50' E 025°55'0 0.0
2014-Oct-24 09:32N 40°50' E 025°55'0 0.0
2014-Oct-24 08:32N 40°50' E 025°55'0 0.0
2014-Oct-24 07:32N 40°50' E 025°55'0 0.1
2014-Oct-24 06:33N 40°50' E 025°55'7 6.9
2014-Oct-24 05:33N 40°45' E 025°49'36 8.9
2014-Oct-24 01:30N 40°19' E 025°16'13 9.8
2014-Oct-24 00:08N 40°08' E 025°07'162 3.6
2014-Oct-22 02:31N 37°38' E 023°46'8 8.8
2014-Oct-22 01:33N 37°44' E 023°39'9 9.1
2014-Oct-22 00:33N 37°49' E 023°29'8 8.0
2014-Oct-21 23:33N 37°56' E 023°23'8 7.7
2014-Oct-21 22:33N 38°01' E 023°30'5 4.5
2014-Oct-21 21:31N 38°02' E 023°36'0 0.0
2014-Oct-21 20:31N 38°02' E 023°36'0 0.0
2014-Oct-21 19:28N 38°02' E 023°36'0 0.0
2014-Oct-21 18:31N 38°02' E 023°36'0 0.0
2014-Oct-21 17:31N 38°02' E 023°36'0 0.0
2014-Oct-21 16:31N 38°02' E 023°36'0 0.0
2014-Oct-21 15:31N 38°02' E 023°36'0 0.0
2014-Oct-21 14:31N 38°02' E 023°36'0 0.0
2014-Oct-21 13:32N 38°02' E 023°36'0 0.0
2014-Oct-21 12:33N 38°02' E 023°36'0 0.0
2014-Oct-21 11:33N 38°02' E 023°36'1 1.4
2014-Oct-21 10:32N 38°01' E 023°34'4 4.0
2014-Oct-21 09:33N 37°57' E 023°34'9 9.1
2014-Oct-21 08:33N 37°50' E 023°40'9 9.3
2014-Oct-21 07:33N 37°41' E 023°45'51 9.4
2014-Oct-21 02:07N 36°51' E 023°56'  

Dump ship's entire track history